Time;durP1;ratioP1;P1;durP2;ratioP2;P2;SDS_P1;SDS_P2;PMS_P1;PMS_P2;Temp;Humidity;BMP_temperature;BMP_pressure;BME280_temperature;BME280_humidity;BME280_pressure;Samples;Min_cycle;Max_cycle;Signal;HPM_P1;HPM_P2
2021/12/02 00:02:18;;;;;;;;;4.00;3.00;;;;;;;;5041959;28;64023;-78
2021/12/02 00:04:44;;;;;;;;;6.00;4.00;;;;;;;;5042252;28;61744;-78
2021/12/02 00:07:10;;;;;;;;;4.75;4.00;;;;;;;;5042807;28;61920;-78
2021/12/02 00:09:38;;;;;;;;;10.00;4.25;;;;;;;;5042439;28;61734;-78
2021/12/02 00:12:04;;;;;;;;;5.00;2.00;;;;;;;;5042801;28;61770;-78
2021/12/02 00:14:38;;;;;;;;;1.25;1.25;;;;;;;;5043533;28;61894;-78
2021/12/02 00:17:06;;;;;;;;;8.50;2.00;;;;;;;;5043819;28;61728;-78
2021/12/02 00:22:16;;;;;;;;;6.50;5.50;;;;;;;;5043040;28;62284;-78
2021/12/02 00:24:45;;;;;;;;;8.00;6.00;;;;;;;;5042152;28;61828;-78
2021/12/02 00:27:11;;;;;;;;;9.25;4.50;;;;;;;;5043289;28;61931;-78
2021/12/02 00:29:39;;;;;;;;;6.50;6.50;;;;;;;;5042441;28;61751;-78
2021/12/02 00:32:05;;;;;;;;;6.50;5.00;;;;;;;;5040989;28;61966;-78
2021/12/02 00:34:31;;;;;;;;;6.00;5.00;;;;;;;;5043238;28;62111;-78
2021/12/02 00:36:56;;;;;;;;;10.50;4.00;;;;;;;;5050175;28;61852;-78
2021/12/02 00:39:22;;;;;;;;;3.50;3.50;;;;;;;;5079162;28;61896;-78
2021/12/02 00:41:48;;;;;;;;;4.00;4.00;;;;;;;;5061070;28;62015;-78
2021/12/02 00:44:14;;;;;;;;;5.25;4.00;;;;;;;;5063353;28;61886;-78
2021/12/02 00:46:40;;;;;;;;;5.00;5.00;;;;;;;;5062593;28;61746;-78
2021/12/02 00:49:10;;;;;;;;;10.50;4.75;;;;;;;;5078752;28;62208;-78
2021/12/02 00:51:36;;;;;;;;;8.50;5.50;;;;;;;;5078116;28;61992;-78
2021/12/02 00:54:03;;;;;;;;;6.00;4.00;;;;;;;;5061824;28;62006;-78
2021/12/02 00:56:29;;;;;;;;;8.75;5.00;;;;;;;;5078203;28;61712;-78
2021/12/02 00:58:55;;;;;;;;;11.50;5.50;;;;;;;;5063436;28;61656;-78
2021/12/02 01:01:22;;;;;;;;;2.25;2.25;;;;;;;;5077609;28;63457;-78
2021/12/02 01:03:49;;;;;;;;;11.75;8.00;;;;;;;;5078651;28;62013;-78
2021/12/02 01:06:14;;;;;;;;;5.00;2.75;;;;;;;;5078913;28;61925;-77
2021/12/02 01:08:40;;;;;;;;;6.50;6.50;;;;;;;;5078408;28;61802;-78
2021/12/02 01:11:06;;;;;;;;;9.00;8.75;;;;;;;;5060662;28;63802;-79
2021/12/02 01:13:32;;;;;;;;;11.00;6.00;;;;;;;;5061475;28;61873;-79
2021/12/02 01:15:57;;;;;;;;;5.75;5.75;;;;;;;;5078303;28;61900;-78
2021/12/02 01:18:23;;;;;;;;;5.00;5.00;;;;;;;;5078487;28;61891;-78
2021/12/02 01:20:49;;;;;;;;;9.00;5.25;;;;;;;;5077913;28;64237;-78
2021/12/02 01:23:15;;;;;;;;;8.00;6.00;;;;;;;;5062887;28;61645;-78
2021/12/02 01:25:42;;;;;;;;;6.25;6.25;;;;;;;;5077715;28;61784;-78
2021/12/02 01:28:07;;;;;;;;;7.50;3.00;;;;;;;;5078757;28;61882;-78
2021/12/02 01:30:42;;;;;;;;;5.50;5.00;;;;;;;;5061766;28;61711;-78
2021/12/02 01:33:08;;;;;;;;;8.00;5.75;;;;;;;;5062675;28;61825;-78
2021/12/02 01:35:34;;;;;;;;;7.00;7.00;;;;;;;;5061199;28;61832;-78
2021/12/02 01:38:00;;;;;;;;;5.75;5.50;;;;;;;;5062372;28;62135;-78
2021/12/02 01:40:26;;;;;;;;;10.00;7.00;;;;;;;;5060133;28;63348;-78
2021/12/02 01:42:52;;;;;;;;;8.50;7.00;;;;;;;;5062661;28;62344;-78
2021/12/02 01:45:20;;;;;;;;;5.25;5.00;;;;;;;;5060951;28;61825;-78
2021/12/02 01:47:47;;;;;;;;;10.00;7.75;;;;;;;;5060635;28;62033;-78
2021/12/02 01:50:14;;;;;;;;;9.50;5.25;;;;;;;;5062135;28;62170;-78
2021/12/02 01:52:43;;;;;;;;;7.00;6.00;;;;;;;;5061846;28;61811;-78
2021/12/02 01:55:11;;;;;;;;;6.00;6.00;;;;;;;;5061050;28;61653;-78
2021/12/02 01:57:40;;;;;;;;;6.50;5.50;;;;;;;;5060654;28;62275;-78
2021/12/02 02:00:11;;;;;;;;;12.25;6.75;;;;;;;;5060002;28;62901;-78
2021/12/02 02:02:37;;;;;;;;;10.25;6.50;;;;;;;;5060916;28;62022;-78
2021/12/02 02:05:07;;;;;;;;;8.00;5.00;;;;;;;;5062310;28;61755;-78
2021/12/02 02:07:33;;;;;;;;;11.00;6.00;;;;;;;;5061045;28;61750;-78
2021/12/02 02:09:58;;;;;;;;;5.25;5.25;;;;;;;;5059923;28;61787;-78
2021/12/02 02:12:25;;;;;;;;;6.00;5.25;;;;;;;;5062039;28;61727;-78
2021/12/02 02:14:51;;;;;;;;;5.00;5.00;;;;;;;;5061438;28;61893;-78
2021/12/02 02:17:24;;;;;;;;;3.00;3.00;;;;;;;;5061183;28;61726;-78
2021/12/02 02:19:50;;;;;;;;;10.00;5.00;;;;;;;;5061366;28;63108;-78
2021/12/02 02:22:20;;;;;;;;;6.25;5.25;;;;;;;;5060865;28;61755;-78
2021/12/02 02:24:45;;;;;;;;;5.00;5.00;;;;;;;;5060438;28;61951;-78
2021/12/02 02:27:11;;;;;;;;;8.75;6.00;;;;;;;;5060349;28;61914;-78
2021/12/02 02:29:36;;;;;;;;;5.75;3.50;;;;;;;;5059699;28;62075;-78
2021/12/02 02:32:02;;;;;;;;;3.75;2.00;;;;;;;;5061767;28;61738;-78
2021/12/02 02:34:27;;;;;;;;;7.00;6.00;;;;;;;;5060594;28;61871;-78
2021/12/02 02:36:56;;;;;;;;;3.75;3.00;;;;;;;;5060253;28;62184;-78
2021/12/02 02:39:22;;;;;;;;;5.25;5.00;;;;;;;;5059800;28;62435;-78
2021/12/02 02:41:55;;;;;;;;;5.00;5.00;;;;;;;;5061311;28;62322;-78
2021/12/02 02:44:21;;;;;;;;;6.50;3.50;;;;;;;;5061740;28;61832;-78
2021/12/02 02:46:47;;;;;;;;;1.75;0.00;;;;;;;;5060785;28;61887;-78
2021/12/02 02:49:13;;;;;;;;;6.50;5.00;;;;;;;;5075969;28;63075;-78
2021/12/02 02:51:39;;;;;;;;;3.00;2.00;;;;;;;;5077309;28;61756;-78
2021/12/02 02:54:07;;;;;;;;;7.00;2.00;;;;;;;;5061509;28;62218;-78
2021/12/02 02:56:36;;;;;;;;;0.50;0.50;;;;;;;;5061205;28;61869;-78
2021/12/02 03:06:58;;;;;;;;;1.50;1.00;;;;;;;;5065525;28;61989;-78
2021/12/02 03:12:03;;;;;;;;;2.00;2.00;;;;;;;;5064065;28;61844;-78
2021/12/02 03:14:47;;;;;;;;;6.25;3.00;;;;;;;;5065076;28;61786;-78
2021/12/02 03:17:12;;;;;;;;;2.25;2.25;;;;;;;;5065483;28;61850;-78
2021/12/02 03:19:42;;;;;;;;;5.50;1.00;;;;;;;;5062667;28;64195;-78
2021/12/02 03:22:07;;;;;;;;;1.25;1.25;;;;;;;;5063671;28;62116;-78
2021/12/02 03:24:33;;;;;;;;;3.00;2.00;;;;;;;;5064842;28;61830;-78
2021/12/02 03:26:59;;;;;;;;;1.75;1.75;;;;;;;;5064592;28;61829;-78
2021/12/02 03:29:24;;;;;;;;;5.25;2.75;;;;;;;;5080090;28;63016;-78
2021/12/02 03:31:49;;;;;;;;;3.50;2.00;;;;;;;;5080382;28;61955;-78
2021/12/02 03:34:15;;;;;;;;;2.00;1.50;;;;;;;;5064825;28;62182;-78
2021/12/02 03:36:40;;;;;;;;;1.00;1.00;;;;;;;;5073066;28;62124;-78
2021/12/02 03:39:07;;;;;;;;;2.25;1.00;;;;;;;;5043753;28;62059;-78
2021/12/02 03:41:33;;;;;;;;;2.00;2.00;;;;;;;;5043942;28;61858;-78
2021/12/02 03:43:59;;;;;;;;;4.50;0.00;;;;;;;;5043281;28;61967;-78
2021/12/02 03:46:24;;;;;;;;;1.75;1.00;;;;;;;;5043311;28;61737;-78
2021/12/02 03:48:50;;;;;;;;;1.00;1.00;;;;;;;;5042058;28;63872;-78
2021/12/02 03:51:17;;;;;;;;;1.00;1.00;;;;;;;;5042756;28;61834;-78
2021/12/02 03:53:43;;;;;;;;;0.00;0.00;;;;;;;;5043273;28;62049;-78
2021/12/02 03:56:09;;;;;;;;;0.00;0.00;;;;;;;;5042359;28;62501;-78
2021/12/02 03:58:35;;;;;;;;;2.00;0.00;;;;;;;;5042660;28;63361;-78
2021/12/02 04:01:00;;;;;;;;;0.00;0.00;;;;;;;;5044152;28;61733;-78
2021/12/02 04:03:26;;;;;;;;;0.75;0.50;;;;;;;;5044411;28;61703;-78
2021/12/02 04:05:51;;;;;;;;;5.75;0.00;;;;;;;;5044595;28;61854;-78
2021/12/02 04:08:17;;;;;;;;;0.00;0.00;;;;;;;;5042259;28;61805;-78
2021/12/02 04:10:43;;;;;;;;;2.50;0.25;;;;;;;;5042126;28;61787;-78
2021/12/02 04:15:49;;;;;;;;;0.25;0.25;;;;;;;;5044076;28;62015;-78
2021/12/02 04:18:15;;;;;;;;;3.75;1.00;;;;;;;;5042971;28;61934;-78
2021/12/02 04:20:40;;;;;;;;;1.50;0.00;;;;;;;;5042573;28;61833;-78
2021/12/02 04:23:05;;;;;;;;;0.00;0.00;;;;;;;;5044037;28;61689;-78
2021/12/02 04:25:31;;;;;;;;;2.00;1.00;;;;;;;;5043232;28;61775;-78
2021/12/02 04:27:56;;;;;;;;;2.25;1.25;;;;;;;;5042286;28;62046;-78
2021/12/02 04:30:23;;;;;;;;;1.75;1.00;;;;;;;;5042581;28;62117;-78
2021/12/02 04:32:48;;;;;;;;;1.00;1.00;;;;;;;;5042491;28;61988;-78
2021/12/02 04:35:20;;;;;;;;;2.00;0.00;;;;;;;;5042470;28;62013;-78
2021/12/02 04:37:48;;;;;;;;;3.00;2.00;;;;;;;;5058836;28;63077;-78
2021/12/02 04:40:18;;;;;;;;;2.00;1.00;;;;;;;;5061769;28;61986;-78
2021/12/02 04:42:43;;;;;;;;;4.25;1.00;;;;;;;;5062412;28;62243;-78
2021/12/02 04:45:09;;;;;;;;;3.00;1.00;;;;;;;;5062594;28;62104;-78
2021/12/02 04:47:34;;;;;;;;;3.00;0.00;;;;;;;;5062897;28;62963;-78
2021/12/02 04:49:59;;;;;;;;;3.50;1.00;;;;;;;;5062094;28;61940;-78
2021/12/02 04:52:25;;;;;;;;;1.00;0.00;;;;;;;;5061934;28;62014;-79
2021/12/02 04:54:50;;;;;;;;;1.75;0.75;;;;;;;;5063940;28;61743;-78
2021/12/02 04:57:15;;;;;;;;;1.00;1.00;;;;;;;;5061385;28;63334;-78
2021/12/02 04:59:41;;;;;;;;;0.00;0.00;;;;;;;;5063428;28;61794;-78
2021/12/02 05:02:06;;;;;;;;;2.00;0.25;;;;;;;;5062360;28;61754;-78
2021/12/02 05:04:31;;;;;;;;;0.50;0.00;;;;;;;;5063378;28;61958;-78
2021/12/02 05:06:56;;;;;;;;;2.00;1.00;;;;;;;;5062526;28;62847;-78
2021/12/02 05:09:22;;;;;;;;;3.00;2.00;;;;;;;;5063384;28;61910;-78
2021/12/02 05:11:47;;;;;;;;;4.50;1.25;;;;;;;;5061525;28;61784;-78
2021/12/02 05:14:12;;;;;;;;;1.75;1.00;;;;;;;;5062168;28;61890;-78
2021/12/02 05:16:39;;;;;;;;;1.25;0.25;;;;;;;;5062436;28;63212;-78
2021/12/02 05:19:04;;;;;;;;;1.50;1.00;;;;;;;;5061422;28;61990;-78
2021/12/02 05:21:30;;;;;;;;;2.00;1.00;;;;;;;;5062614;28;61731;-78
2021/12/02 05:23:55;;;;;;;;;1.50;1.00;;;;;;;;5063484;28;61701;-78
2021/12/02 05:26:24;;;;;;;;;3.00;1.75;;;;;;;;5061145;28;62205;-78
2021/12/02 05:28:50;;;;;;;;;7.25;2.00;;;;;;;;5063108;28;62124;-78
2021/12/02 05:31:16;;;;;;;;;2.25;1.00;;;;;;;;5061559;28;61817;-79
2021/12/02 05:33:41;;;;;;;;;1.50;1.00;;;;;;;;5061761;28;62081;-78
2021/12/02 05:36:07;;;;;;;;;3.00;3.00;;;;;;;;5061852;28;61984;-78
2021/12/02 05:38:32;;;;;;;;;11.50;2.00;;;;;;;;5061031;28;61910;-78
2021/12/02 05:40:57;;;;;;;;;5.00;2.25;;;;;;;;5061138;28;61760;-79
2021/12/02 05:43:22;;;;;;;;;3.50;2.00;;;;;;;;5063144;28;61989;-79
2021/12/02 05:45:48;;;;;;;;;1.00;1.00;;;;;;;;5061968;28;62056;-79
2021/12/02 05:48:13;;;;;;;;;2.00;2.00;;;;;;;;5061118;28;61973;-79
2021/12/02 05:50:39;;;;;;;;;7.25;2.00;;;;;;;;5060832;28;61835;-79
2021/12/02 05:53:04;;;;;;;;;6.75;1.75;;;;;;;;5061585;28;62148;-79
2021/12/02 05:55:29;;;;;;;;;5.50;2.00;;;;;;;;5061884;28;61728;-79
2021/12/02 05:57:55;;;;;;;;;3.00;1.00;;;;;;;;5060565;28;62318;-79
2021/12/02 06:00:20;;;;;;;;;3.75;2.00;;;;;;;;5060996;28;62057;-78
2021/12/02 06:02:45;;;;;;;;;4.25;1.25;;;;;;;;5061289;28;61736;-79
2021/12/02 06:05:16;;;;;;;;;5.00;3.50;;;;;;;;5060047;28;63591;-78
2021/12/02 06:07:42;;;;;;;;;5.50;4.00;;;;;;;;5062314;28;61727;-78
2021/12/02 06:10:08;;;;;;;;;1.00;1.00;;;;;;;;5062753;28;61934;-79
2021/12/02 06:12:33;;;;;;;;;2.75;1.25;;;;;;;;5062533;28;61727;-78
2021/12/02 06:14:58;;;;;;;;;7.00;1.25;;;;;;;;5061911;28;63198;-76
2021/12/02 06:17:23;;;;;;;;;1.25;1.00;;;;;;;;5060690;28;61940;-79
2021/12/02 06:19:49;;;;;;;;;5.00;0.75;;;;;;;;5061623;28;61722;-79
2021/12/02 06:22:14;;;;;;;;;4.00;1.75;;;;;;;;5062921;28;61701;-77
2021/12/02 06:25:05;;;;;;;;;2.00;2.00;;;;;;;;5060100;28;63006;-77
2021/12/02 06:27:31;;;;;;;;;1.25;1.25;;;;;;;;5062014;28;61902;-76
2021/12/02 06:29:56;;;;;;;;;1.00;1.00;;;;;;;;5061950;28;61882;-75
2021/12/02 06:32:21;;;;;;;;;15.75;6.00;;;;;;;;5060824;28;62117;-76
2021/12/02 06:34:46;;;;;;;;;3.00;2.00;;;;;;;;5059167;28;63658;-75
2021/12/02 06:37:12;;;;;;;;;5.50;4.50;;;;;;;;5060024;28;62105;-75
2021/12/02 06:39:37;;;;;;;;;4.50;1.50;;;;;;;;5065279;28;61881;-75
2021/12/02 06:42:02;;;;;;;;;2.00;2.00;;;;;;;;5064080;28;62696;-75
2021/12/02 06:44:28;;;;;;;;;3.50;2.50;;;;;;;;5063397;28;62328;-76
2021/12/02 06:46:54;;;;;;;;;8.00;4.25;;;;;;;;5063545;28;61752;-75
2021/12/02 06:49:19;;;;;;;;;5.00;4.00;;;;;;;;5064793;28;61914;-74
2021/12/02 06:51:45;;;;;;;;;2.00;2.00;;;;;;;;5065280;28;62033;-73
2021/12/02 06:54:10;;;;;;;;;3.25;2.00;;;;;;;;5063142;28;63300;-75
2021/12/02 06:56:35;;;;;;;;;1.50;1.50;;;;;;;;5064612;28;61773;-75
2021/12/02 06:59:01;;;;;;;;;2.50;2.00;;;;;;;;5063384;28;61941;-74
2021/12/02 07:01:26;;;;;;;;;9.00;1.50;;;;;;;;5065374;28;61775;-74
2021/12/02 07:03:51;;;;;;;;;4.00;2.00;;;;;;;;5062526;28;63772;-79
2021/12/02 07:06:16;;;;;;;;;5.00;3.50;;;;;;;;5065086;28;62080;-77
2021/12/02 07:08:42;;;;;;;;;5.00;1.25;;;;;;;;5063531;28;62031;-77
2021/12/02 07:11:09;;;;;;;;;3.75;2.75;;;;;;;;5062589;28;61984;-78
2021/12/02 07:13:36;;;;;;;;;4.25;2.00;;;;;;;;5062567;28;64582;-81
2021/12/02 07:16:02;;;;;;;;;2.25;1.50;;;;;;;;5064140;28;61911;-78
2021/12/02 07:18:27;;;;;;;;;2.25;1.00;;;;;;;;5062372;28;61807;-81
2021/12/02 07:20:52;;;;;;;;;5.00;2.00;;;;;;;;5064741;28;61971;-78
2021/12/02 07:23:19;;;;;;;;;5.25;1.50;;;;;;;;5063784;28;62082;-78
2021/12/02 07:25:44;;;;;;;;;2.00;2.00;;;;;;;;5058103;28;61813;-78
2021/12/02 07:28:10;;;;;;;;;5.25;3.00;;;;;;;;5047339;28;62586;-78
2021/12/02 07:30:37;;;;;;;;;6.25;5.00;;;;;;;;5051486;28;62160;-78
2021/12/02 07:33:04;;;;;;;;;3.50;2.50;;;;;;;;5049026;28;62255;-78
2021/12/02 07:35:30;;;;;;;;;9.75;4.25;;;;;;;;5052766;28;62007;-78
2021/12/02 07:37:58;;;;;;;;;6.00;2.75;;;;;;;;5053299;28;62005;-75
2021/12/02 07:40:24;;;;;;;;;8.75;4.75;;;;;;;;5042734;28;62204;-74
2021/12/02 07:42:53;;;;;;;;;6.75;4.00;;;;;;;;5041684;28;63741;-75
2021/12/02 07:45:23;;;;;;;;;2.50;2.50;;;;;;;;5042402;28;61903;-75
2021/12/02 07:47:48;;;;;;;;;3.00;2.00;;;;;;;;5041799;28;61799;-75
2021/12/02 07:50:18;;;;;;;;;5.50;5.00;;;;;;;;5041915;28;61776;-75
2021/12/02 07:52:54;;;;;;;;;16.50;13.50;;;;;;;;5041807;28;61893;-74
2021/12/02 07:55:20;;;;;;;;;5.00;4.25;;;;;;;;5042529;28;61993;-74
2021/12/02 07:57:47;;;;;;;;;12.50;3.50;;;;;;;;5042947;28;61934;-74
2021/12/02 08:00:17;;;;;;;;;9.25;6.00;;;;;;;;5043733;28;61902;-75
2021/12/02 08:02:45;;;;;;;;;20.50;20.00;;;;;;;;5042627;28;62074;-73
2021/12/02 08:05:11;;;;;;;;;8.00;5.75;;;;;;;;5042883;28;61996;-73
2021/12/02 08:07:39;;;;;;;;;8.00;8.00;;;;;;;;5041333;28;62022;-73
2021/12/02 08:10:05;;;;;;;;;2.00;2.00;;;;;;;;5042869;28;61753;-73
2021/12/02 08:12:31;;;;;;;;;13.25;8.75;;;;;;;;5041412;28;63903;-73
2021/12/02 08:14:56;;;;;;;;;6.75;4.00;;;;;;;;5043718;28;62032;-73
2021/12/02 08:17:21;;;;;;;;;6.25;6.25;;;;;;;;5041290;28;62104;-73
2021/12/02 08:19:47;;;;;;;;;7.75;6.00;;;;;;;;5043642;28;61822;-73
2021/12/02 08:22:12;;;;;;;;;6.25;6.00;;;;;;;;5042972;28;61916;-73
2021/12/02 08:24:37;;;;;;;;;7.00;3.00;;;;;;;;5043578;28;61684;-73
2021/12/02 08:27:02;;;;;;;;;6.50;4.00;;;;;;;;5042245;28;61795;-74
2021/12/02 08:29:28;;;;;;;;;5.00;3.25;;;;;;;;5042271;28;61731;-73
2021/12/02 08:31:53;;;;;;;;;6.00;4.00;;;;;;;;5042526;28;62097;-73
2021/12/02 08:34:18;;;;;;;;;9.00;4.00;;;;;;;;5041682;28;61956;-73
2021/12/02 08:36:51;;;;;;;;;8.50;2.00;;;;;;;;5052151;28;62075;-73
2021/12/02 08:39:18;;;;;;;;;2.00;2.00;;;;;;;;5062270;28;62006;-73
2021/12/02 08:41:48;;;;;;;;;5.25;2.00;;;;;;;;5062356;28;62295;-73
2021/12/02 08:44:14;;;;;;;;;3.50;2.00;;;;;;;;5062121;28;62059;-73
2021/12/02 08:46:40;;;;;;;;;5.75;2.00;;;;;;;;5062532;28;61702;-73
2021/12/02 08:49:06;;;;;;;;;4.25;2.50;;;;;;;;5062694;28;61993;-73
2021/12/02 08:51:31;;;;;;;;;6.50;2.00;;;;;;;;5062563;28;62781;-74
2021/12/02 08:53:56;;;;;;;;;10.00;5.50;;;;;;;;5063386;28;61758;-73
2021/12/02 08:56:22;;;;;;;;;4.50;3.25;;;;;;;;5063158;28;61928;-73
2021/12/02 08:58:47;;;;;;;;;8.00;2.00;;;;;;;;5063511;28;61692;-73
2021/12/02 09:01:12;;;;;;;;;7.00;3.25;;;;;;;;5060841;28;62223;-73
2021/12/02 09:03:38;;;;;;;;;3.50;3.25;;;;;;;;5061853;28;62289;-73
2021/12/02 09:06:03;;;;;;;;;6.00;2.00;;;;;;;;5063143;28;61714;-73
2021/12/02 09:08:29;;;;;;;;;4.50;4.50;;;;;;;;5063308;28;61938;-73
2021/12/02 09:10:56;;;;;;;;;5.50;3.25;;;;;;;;5060852;28;63673;-73
2021/12/02 09:13:22;;;;;;;;;5.25;2.75;;;;;;;;5062694;28;61628;-73
2021/12/02 09:15:48;;;;;;;;;6.25;2.50;;;;;;;;5062778;28;61750;-73
2021/12/02 09:18:13;;;;;;;;;9.00;2.00;;;;;;;;5062715;28;61787;-73
2021/12/02 09:20:39;;;;;;;;;10.75;5.00;;;;;;;;5062035;28;61949;-73
2021/12/02 09:23:04;;;;;;;;;2.00;1.50;;;;;;;;5063135;28;61788;-73
2021/12/02 09:25:29;;;;;;;;;4.50;2.25;;;;;;;;5061642;28;62004;-73
2021/12/02 09:27:54;;;;;;;;;4.50;3.00;;;;;;;;5062047;28;61880;-73
2021/12/02 09:30:20;;;;;;;;;7.75;1.00;;;;;;;;5061112;28;63370;-73
2021/12/02 09:32:45;;;;;;;;;2.75;1.00;;;;;;;;5062325;28;61699;-73
2021/12/02 09:35:12;;;;;;;;;2.25;2.25;;;;;;;;5062762;28;61720;-73
2021/12/02 09:37:37;;;;;;;;;3.25;1.00;;;;;;;;5050575;28;61884;-73
2021/12/02 09:40:04;;;;;;;;;7.50;4.50;;;;;;;;5041871;28;61950;-74
2021/12/02 09:42:29;;;;;;;;;3.00;3.00;;;;;;;;5041788;28;61966;-73
2021/12/02 09:45:01;;;;;;;;;5.00;2.00;;;;;;;;5042453;28;61943;-73
2021/12/02 09:47:28;;;;;;;;;3.00;1.50;;;;;;;;5042218;28;61913;-73
2021/12/02 09:49:54;;;;;;;;;9.00;3.50;;;;;;;;5041417;28;62161;-73
2021/12/02 09:52:28;;;;;;;;;1.50;1.50;;;;;;;;5041155;28;62029;-73
2021/12/02 09:55:00;;;;;;;;;3.50;1.75;;;;;;;;5042101;28;62069;-73
2021/12/02 09:57:32;;;;;;;;;2.00;2.00;;;;;;;;5041745;28;61984;-73
2021/12/02 09:59:58;;;;;;;;;1.75;1.00;;;;;;;;5041250;28;61770;-73
2021/12/02 10:02:24;;;;;;;;;3.00;2.00;;;;;;;;5040719;28;62108;-73
2021/12/02 10:05:01;;;;;;;;;1.00;1.00;;;;;;;;5040447;28;61725;-73
2021/12/02 10:07:34;;;;;;;;;3.00;3.00;;;;;;;;5040839;28;61757;-73
2021/12/02 10:10:27;;;;;;;;;7.00;2.00;;;;;;;;5041225;28;63056;-73
2021/12/02 10:13:06;;;;;;;;;0.75;0.00;;;;;;;;5039152;28;61811;-73
2021/12/02 10:15:34;;;;;;;;;2.50;0.50;;;;;;;;5042189;28;61912;-73
2021/12/02 10:18:13;;;;;;;;;6.00;2.00;;;;;;;;5041380;28;61801;-73
2021/12/02 10:20:51;;;;;;;;;6.00;6.00;;;;;;;;5041379;28;62880;-73
2021/12/02 10:23:24;;;;;;;;;2.25;1.00;;;;;;;;5041931;28;61992;-73
2021/12/02 10:25:58;;;;;;;;;1.00;1.00;;;;;;;;5039985;28;61962;-73
2021/12/02 10:28:24;;;;;;;;;1.00;1.00;;;;;;;;5041840;28;61856;-73
2021/12/02 10:30:52;;;;;;;;;1.00;1.00;;;;;;;;5041209;28;61802;-73
2021/12/02 10:33:36;;;;;;;;;2.00;2.00;;;;;;;;5040593;28;62228;-73
2021/12/02 10:36:03;;;;;;;;;5.75;1.75;;;;;;;;5042936;28;61790;-73
2021/12/02 10:38:31;;;;;;;;;5.00;1.25;;;;;;;;5043173;28;61937;-73
2021/12/02 10:40:58;;;;;;;;;2.00;1.00;;;;;;;;5040212;28;61972;-73
2021/12/02 10:43:23;;;;;;;;;5.00;2.00;;;;;;;;5041490;28;61796;-73
2021/12/02 10:45:49;;;;;;;;;2.75;1.75;;;;;;;;5041669;28;62074;-73
2021/12/02 10:48:14;;;;;;;;;2.00;1.00;;;;;;;;5041447;28;61926;-73
2021/12/02 10:50:40;;;;;;;;;2.25;0.75;;;;;;;;5041130;28;62876;-73
2021/12/02 10:53:05;;;;;;;;;1.25;1.25;;;;;;;;5040135;28;61924;-73
2021/12/02 10:55:32;;;;;;;;;3.00;3.00;;;;;;;;5040928;28;61991;-73
2021/12/02 10:57:58;;;;;;;;;5.75;1.50;;;;;;;;5039829;28;61877;-73
2021/12/02 11:00:25;;;;;;;;;2.50;1.50;;;;;;;;5040569;28;63096;-73
2021/12/02 11:02:53;;;;;;;;;3.50;2.00;;;;;;;;5039826;28;61834;-74
2021/12/02 11:05:24;;;;;;;;;0.25;0.00;;;;;;;;5041291;28;61773;-73
2021/12/02 11:08:02;;;;;;;;;0.25;0.25;;;;;;;;5041703;28;61998;-72
2021/12/02 11:10:31;;;;;;;;;1.00;1.00;;;;;;;;5039046;28;63482;-73
2021/12/02 11:12:57;;;;;;;;;4.50;0.50;;;;;;;;5040737;28;61813;-71
2021/12/02 11:15:23;;;;;;;;;1.00;0.00;;;;;;;;5041322;28;61843;-72
2021/12/02 11:17:53;;;;;;;;;0.00;0.00;;;;;;;;5040979;28;61972;-72
2021/12/02 11:20:22;;;;;;;;;0.00;0.00;;;;;;;;5040453;28;62045;-73
2021/12/02 11:22:49;;;;;;;;;0.00;0.00;;;;;;;;5041511;28;62114;-72
2021/12/02 11:25:14;;;;;;;;;0.00;0.00;;;;;;;;5041592;28;62127;-73
2021/12/02 11:27:44;;;;;;;;;3.00;2.00;;;;;;;;5043133;28;62168;-72
2021/12/02 11:30:10;;;;;;;;;0.00;0.00;;;;;;;;5043765;28;63046;-73
2021/12/02 11:32:40;;;;;;;;;0.00;0.00;;;;;;;;5043181;28;62162;-73
2021/12/02 11:35:08;;;;;;;;;0.00;0.00;;;;;;;;5044182;28;62038;-73
2021/12/02 11:37:35;;;;;;;;;0.00;0.00;;;;;;;;5047668;28;61980;-74
2021/12/02 11:40:05;;;;;;;;;3.00;0.00;;;;;;;;5043168;28;62116;-72
2021/12/02 11:42:31;;;;;;;;;0.00;0.00;;;;;;;;5042651;28;62066;-73
2021/12/02 11:44:57;;;;;;;;;0.00;0.00;;;;;;;;5044213;28;62185;-73
2021/12/02 11:47:22;;;;;;;;;2.50;1.25;;;;;;;;5043936;28;61757;-73
2021/12/02 11:49:47;;;;;;;;;0.00;0.00;;;;;;;;5043891;28;63222;-73
2021/12/02 11:52:13;;;;;;;;;0.50;0.00;;;;;;;;5042574;28;62086;-74
2021/12/02 11:54:38;;;;;;;;;0.75;0.00;;;;;;;;5043724;28;61890;-76
2021/12/02 11:57:03;;;;;;;;;0.00;0.00;;;;;;;;5042499;28;61932;-76
2021/12/02 11:59:29;;;;;;;;;0.50;0.00;;;;;;;;5043680;28;62977;-76
2021/12/02 12:01:55;;;;;;;;;0.75;0.00;;;;;;;;5044114;28;61911;-75
2021/12/02 12:04:21;;;;;;;;;0.00;0.00;;;;;;;;5042683;28;61717;-75
2021/12/02 12:06:52;;;;;;;;;2.00;0.00;;;;;;;;5042652;28;61879;-75
2021/12/02 12:09:18;;;;;;;;;1.00;0.00;;;;;;;;5043090;28;62004;-76
2021/12/02 12:11:55;;;;;;;;;0.00;0.00;;;;;;;;5043977;28;61990;-74
2021/12/02 12:14:34;;;;;;;;;0.00;0.00;;;;;;;;5043930;28;61844;-75
2021/12/02 12:17:04;;;;;;;;;0.50;0.00;;;;;;;;5041963;28;62178;-75
2021/12/02 12:19:31;;;;;;;;;0.00;0.00;;;;;;;;5040884;28;61890;-75
2021/12/02 12:21:58;;;;;;;;;0.00;0.00;;;;;;;;5043674;28;61963;-75
2021/12/02 12:24:38;;;;;;;;;0.00;0.00;;;;;;;;5043460;28;61704;-75
2021/12/02 12:27:14;;;;;;;;;0.00;0.00;;;;;;;;5042163;28;61880;-75
2021/12/02 12:29:39;;;;;;;;;0.00;0.00;;;;;;;;5043220;28;63320;-75
2021/12/02 12:32:18;;;;;;;;;1.00;0.00;;;;;;;;5043684;28;61733;-75
2021/12/02 12:37:23;;;;;;;;;0.75;0.75;;;;;;;;5047543;28;61782;-74
2021/12/02 12:40:07;;;;;;;;;0.00;0.00;;;;;;;;5042757;28;62682;-75
2021/12/02 12:42:32;;;;;;;;;0.75;0.75;;;;;;;;5042864;28;62100;-75
2021/12/02 12:44:59;;;;;;;;;1.50;0.00;;;;;;;;5042151;28;61958;-75
2021/12/02 12:47:39;;;;;;;;;0.00;0.00;;;;;;;;5041740;28;62016;-75
2021/12/02 12:50:20;;;;;;;;;1.00;0.00;;;;;;;;5043241;28;62802;-75
2021/12/02 12:52:45;;;;;;;;;0.00;0.00;;;;;;;;5042914;28;61891;-75
2021/12/02 12:55:15;;;;;;;;;0.75;0.00;;;;;;;;5041782;28;62017;-75
2021/12/02 12:58:13;;;;;;;;;1.00;0.00;;;;;;;;5042968;28;62085;-75
2021/12/02 13:00:38;;;;;;;;;1.75;0.75;;;;;;;;5000062;28;62885;-75
2021/12/02 13:03:05;;;;;;;;;0.25;0.00;;;;;;;;5000828;28;62282;-75
2021/12/02 13:05:47;;;;;;;;;0.00;0.00;;;;;;;;4983723;28;61807;-75
2021/12/02 13:08:17;;;;;;;;;0.25;0.00;;;;;;;;4984791;28;61900;-75
2021/12/02 13:10:52;;;;;;;;;1.75;0.00;;;;;;;;5000139;28;63175;-75
2021/12/02 13:13:26;;;;;;;;;0.00;0.00;;;;;;;;5000276;28;62031;-75
2021/12/02 13:15:52;;;;;;;;;0.00;0.00;;;;;;;;5000550;28;62261;-75
2021/12/02 13:18:31;;;;;;;;;1.00;0.00;;;;;;;;5000397;28;62227;-75
2021/12/02 13:20:56;;;;;;;;;2.00;0.00;;;;;;;;4999590;28;63080;-75
2021/12/02 13:23:25;;;;;;;;;0.00;0.00;;;;;;;;5000963;28;61920;-75
2021/12/02 13:25:54;;;;;;;;;3.25;0.00;;;;;;;;4983852;28;62024;-75
2021/12/02 13:28:22;;;;;;;;;1.00;0.00;;;;;;;;5000765;28;61960;-75
2021/12/02 13:30:52;;;;;;;;;0.00;0.00;;;;;;;;4999938;28;61929;-75
2021/12/02 13:33:17;;;;;;;;;2.00;0.00;;;;;;;;5000470;28;61849;-75
2021/12/02 13:35:43;;;;;;;;;18.50;10.25;;;;;;;;5011936;28;62115;-75
2021/12/02 13:38:09;;;;;;;;;1.00;0.00;;;;;;;;5061509;28;62184;-75
2021/12/02 13:40:38;;;;;;;;;2.00;0.00;;;;;;;;5061818;28;62071;-75
2021/12/02 13:43:04;;;;;;;;;1.50;1.50;;;;;;;;5062245;28;61760;-75
2021/12/02 13:45:30;;;;;;;;;13.75;13.25;;;;;;;;5061474;28;62248;-75
2021/12/02 13:48:05;;;;;;;;;2.00;1.00;;;;;;;;5061587;28;62185;-75
2021/12/02 13:50:35;;;;;;;;;1.25;0.00;;;;;;;;5061532;28;62995;-75
2021/12/02 13:53:00;;;;;;;;;7.50;6.50;;;;;;;;5062359;28;61832;-75
2021/12/02 13:55:34;;;;;;;;;0.00;0.00;;;;;;;;5062508;28;61885;-75
2021/12/02 14:00:45;;;;;;;;;0.25;0.00;;;;;;;;5061821;28;61636;-75
2021/12/02 14:03:13;;;;;;;;;2.25;1.75;;;;;;;;5061206;28;61843;-75
2021/12/02 14:05:39;;;;;;;;;2.50;1.25;;;;;;;;5060080;28;62056;-75
2021/12/02 14:08:07;;;;;;;;;6.25;3.00;;;;;;;;5062702;28;61691;-75
2021/12/02 14:10:33;;;;;;;;;0.00;0.00;;;;;;;;5061626;28;62072;-75
2021/12/02 14:13:09;;;;;;;;;0.00;0.00;;;;;;;;5060388;28;61910;-75
2021/12/02 14:15:38;;;;;;;;;0.25;0.00;;;;;;;;5062183;28;61986;-75
2021/12/02 14:18:14;;;;;;;;;0.00;0.00;;;;;;;;5061815;28;61821;-75
2021/12/02 14:20:50;;;;;;;;;3.25;1.00;;;;;;;;5061366;28;62062;-75
2021/12/02 14:23:17;;;;;;;;;0.50;0.25;;;;;;;;5062214;28;61691;-74
2021/12/02 14:25:46;;;;;;;;;0.00;0.00;;;;;;;;5060453;28;61821;-74
2021/12/02 14:28:14;;;;;;;;;0.00;0.00;;;;;;;;5061811;28;61910;-75
2021/12/02 14:30:49;;;;;;;;;2.00;0.00;;;;;;;;5059750;28;61944;-74
2021/12/02 14:33:15;;;;;;;;;0.00;0.00;;;;;;;;5061619;28;61933;-75
2021/12/02 14:35:50;;;;;;;;;0.25;0.25;;;;;;;;5061127;28;61897;-75
2021/12/02 14:38:19;;;;;;;;;0.00;0.00;;;;;;;;5057894;28;62646;-75
2021/12/02 14:40:48;;;;;;;;;0.00;0.00;;;;;;;;5060263;28;62464;-75
2021/12/02 14:43:14;;;;;;;;;1.50;0.25;;;;;;;;5059374;28;62269;-75
2021/12/02 14:45:40;;;;;;;;;2.50;0.00;;;;;;;;5059643;28;61917;-75
2021/12/02 14:48:17;;;;;;;;;0.00;0.00;;;;;;;;5058399;28;61941;-75
2021/12/02 14:50:43;;;;;;;;;0.00;0.00;;;;;;;;5058540;28;61994;-75
2021/12/02 14:53:24;;;;;;;;;0.00;0.00;;;;;;;;5059347;28;61669;-75
2021/12/02 14:55:49;;;;;;;;;0.00;0.00;;;;;;;;5057757;28;61909;-75
2021/12/02 14:58:15;;;;;;;;;0.00;0.00;;;;;;;;5059784;28;61874;-75
2021/12/02 15:00:42;;;;;;;;;0.00;0.00;;;;;;;;5059371;28;61838;-75
2021/12/02 15:03:07;;;;;;;;;0.00;0.00;;;;;;;;5062671;28;62064;-75
2021/12/02 15:05:32;;;;;;;;;2.75;0.25;;;;;;;;5061889;28;62029;-75
2021/12/02 15:07:59;;;;;;;;;0.75;0.75;;;;;;;;5063117;28;61821;-75